Time;durP1;ratioP1;P1;durP2;ratioP2;P2;SDS_P1;SDS_P2;PMS_P1;PMS_P2;Temp;Humidity;BMP_temperature;BMP_pressure;BME280_temperature;BME280_humidity;BME280_pressure;Samples;Min_cycle;Max_cycle;Signal;HPM_P1;HPM_P2
2022/07/03 00:01:23;;;;;;;1.30;0.80;;;25.80;46.20;;;;;;5012456;28;20128;-64
2022/07/03 00:03:49;;;;;;;1.25;0.90;;;25.80;46.30;;;;;;5006189;28;20029;-66
2022/07/03 00:06:15;;;;;;;1.77;0.93;;;25.80;46.30;;;;;;5007862;28;20462;-62
2022/07/03 00:08:40;;;;;;;1.02;0.90;;;25.80;46.30;;;;;;5011558;28;20105;-66
2022/07/03 00:11:07;;;;;;;0.85;0.80;;;25.80;46.30;;;;;;5011932;28;20224;-63
2022/07/03 00:13:32;;;;;;;1.98;0.90;;;25.70;46.30;;;;;;5011919;28;20029;-65
2022/07/03 00:15:58;;;;;;;1.40;0.90;;;25.70;46.40;;;;;;5006638;28;20419;-65
2022/07/03 00:18:24;;;;;;;1.17;0.90;;;25.70;46.40;;;;;;5022256;28;20036;-61
2022/07/03 00:20:59;;;;;;;1.90;0.80;;;25.70;46.40;;;;;;5010279;28;20041;-65
2022/07/03 00:23:28;;;;;;;1.00;0.80;;;25.70;46.50;;;;;;5015307;28;21162;-60
2022/07/03 00:25:54;;;;;;;;;;;25.70;46.50;;;;;;5015982;28;20028;-66
2022/07/03 00:28:20;;;;;;;1.20;0.80;;;25.70;46.50;;;;;;5014079;28;19965;-66
2022/07/03 00:30:48;;;;;;;0.90;0.80;;;25.70;46.50;;;;;;5015103;28;21069;-65
2022/07/03 00:33:15;;;;;;;0.77;0.68;;;25.70;46.60;;;;;;5013972;28;20033;-65
2022/07/03 00:35:43;;;;;;;1.27;0.85;;;25.60;47.00;;;;;;5014851;28;20099;-66
2022/07/03 00:38:12;;;;;;;1.10;0.80;;;25.60;46.60;;;;;;5014656;28;20434;-64
2022/07/03 00:40:38;;;;;;;0.70;0.70;;;25.60;46.60;;;;;;5015448;28;20025;-62
2022/07/03 00:43:04;;;;;;;1.13;0.88;;;25.60;46.60;;;;;;5016507;28;20052;-66
2022/07/03 00:45:34;;;;;;;1.00;0.90;;;25.60;46.70;;;;;;5014041;28;20981;-66
2022/07/03 00:48:00;;;;;;;1.27;0.80;;;25.60;46.70;;;;;;5012414;28;20867;-63
2022/07/03 00:50:33;;;;;;;1.35;0.80;;;25.50;46.60;;;;;;5013146;28;20069;-65
2022/07/03 00:53:01;;;;;;;1.05;0.73;;;25.60;46.80;;;;;;5015377;28;20064;-65
2022/07/03 00:55:27;;;;;;;1.08;0.80;;;25.50;46.70;;;;;;5013999;28;20672;-65
2022/07/03 00:57:56;;;;;;;1.00;0.80;;;25.50;46.80;;;;;;5015689;28;20029;-65
2022/07/03 01:00:21;;;;;;;0.82;0.80;;;25.50;46.80;;;;;;5015757;28;20464;-61
2022/07/03 01:03:04;;;;;;;0.90;0.70;;;25.50;46.80;;;;;;5014859;28;20064;-64
2022/07/03 01:05:42;;;;;;;1.15;0.73;;;25.50;46.80;;;;;;5013886;28;20722;-65
2022/07/03 01:08:26;;;;;;;1.40;0.70;;;25.50;46.90;;;;;;5015249;28;20056;-64
2022/07/03 01:10:55;;;;;;;1.00;0.70;;;25.40;46.80;;;;;;5014017;28;20506;-66
2022/07/03 01:13:21;;;;;;;1.38;0.90;;;25.50;46.90;;;;;;5016064;28;20385;-65
2022/07/03 01:15:59;;;;;;;0.88;0.70;;;25.40;46.80;;;;;;5015127;28;20105;-65
2022/07/03 01:18:34;;;;;;;1.20;0.87;;;25.50;47.40;;;;;;5013341;28;20109;-65
2022/07/03 01:21:13;;;;;;;1.00;0.70;;;25.50;47.00;;;;;;5013414;28;20119;-66
2022/07/03 01:24:10;;;;;;;0.90;0.70;;;25.40;46.90;;;;;;5016087;28;20434;-65
2022/07/03 01:26:38;;;;;;;0.77;0.70;;;25.40;47.00;;;;;;5012218;28;20379;-63
2022/07/03 01:29:16;;;;;;;1.55;0.80;;;25.40;47.00;;;;;;5015964;28;20478;-62
2022/07/03 01:31:45;;;;;;;0.80;0.80;;;25.40;47.00;;;;;;5014920;28;20121;-64
2022/07/03 01:34:14;;;;;;;0.85;0.80;;;25.40;47.00;;;;;;5013498;28;20026;-64
2022/07/03 01:36:42;;;;;;;1.17;0.88;;;25.40;47.10;;;;;;5011237;28;20075;-65
2022/07/03 01:39:11;;;;;;;1.02;0.82;;;25.40;47.10;;;;;;5014420;28;20770;-62
2022/07/03 01:41:37;;;;;;;0.60;0.60;;;25.40;47.10;;;;;;5014157;28;20466;-65
2022/07/03 01:44:05;;;;;;;1.00;0.80;;;25.40;47.10;;;;;;5015561;28;20378;-65
2022/07/03 01:46:32;;;;;;;0.93;0.73;;;25.40;47.10;;;;;;5013922;28;20108;-66
2022/07/03 01:48:59;;;;;;;0.90;0.77;;;25.40;47.20;;;;;;5010205;28;20037;-66
2022/07/03 01:51:25;;;;;;;0.70;0.70;;;25.40;47.10;;;;;;5010816;28;20477;-65
2022/07/03 01:53:53;;;;;;;1.02;0.88;;;25.40;47.20;;;;;;5015666;28;20026;-61
2022/07/03 01:56:22;;;;;;;0.95;0.70;;;25.30;47.10;;;;;;5014712;28;20029;-65
2022/07/03 01:58:48;;;;;;;;;;;25.30;47.20;;;;;;5010746;28;20022;-64
2022/07/03 02:01:30;;;;;;;0.70;0.63;;;25.30;47.10;;;;;;5012433;28;19975;-65
2022/07/03 02:04:11;;;;;;;1.25;0.80;;;25.30;47.20;;;;;;5014364;28;20115;-64
2022/07/03 02:06:43;;;;;;;0.75;0.75;;;25.30;47.20;;;;;;5011006;28;20170;-65
2022/07/03 02:09:10;;;;;;;1.35;0.95;;;25.30;47.30;;;;;;5013080;28;20053;-65
2022/07/03 02:11:44;;;;;;;0.90;0.80;;;25.30;47.20;;;;;;5012921;28;20422;-61
2022/07/03 02:14:18;;;;;;;1.23;0.80;;;25.30;47.30;;;;;;5015658;28;20029;-66
2022/07/03 02:16:50;;;;;;;0.70;0.70;;;25.20;47.20;;;;;;5011707;28;20418;-65
2022/07/03 02:19:17;;;;;;;0.80;0.80;;;25.30;47.30;;;;;;5013538;28;20187;-65
2022/07/03 02:22:02;;;;;;;1.20;0.80;;;25.30;47.30;;;;;;5012615;28;20602;-62
2022/07/03 02:24:30;;;;;;;0.70;0.70;;;25.20;47.30;;;;;;5014233;28;20048;-62
2022/07/03 02:27:02;;;;;;;0.80;0.70;;;25.20;47.30;;;;;;5012700;28;20079;-66
2022/07/03 02:29:40;;;;;;;0.98;0.80;;;25.30;47.90;;;;;;5012759;28;20022;-62
2022/07/03 02:32:12;;;;;;;0.98;0.88;;;25.20;47.30;;;;;;5014791;28;20072;-63
2022/07/03 02:34:38;;;;;;;0.95;0.75;;;25.20;47.30;;;;;;5013843;28;20112;-66
2022/07/03 02:37:15;;;;;;;0.80;0.70;;;25.20;47.30;;;;;;5012135;28;20449;-66
2022/07/03 02:40:14;;;;;;;1.05;0.85;;;25.20;47.30;;;;;;5010353;28;20107;-62
2022/07/03 02:43:08;;;;;;;0.70;0.70;;;25.20;47.30;;;;;;5014232;28;20918;-61
2022/07/03 02:45:43;;;;;;;0.63;0.60;;;25.20;47.40;;;;;;5012717;28;20135;-65
2022/07/03 02:48:18;;;;;;;0.80;0.70;;;25.20;47.40;;;;;;5012120;28;20025;-65
2022/07/03 02:50:47;;;;;;;1.50;0.90;;;25.20;47.40;;;;;;5011578;28;20124;-65
2022/07/03 02:53:26;;;;;;;0.80;0.80;;;25.20;47.40;;;;;;5011511;28;20021;-66
2022/07/03 02:56:05;;;;;;;0.88;0.73;;;25.20;47.40;;;;;;5015200;28;20029;-66
2022/07/03 02:58:42;;;;;;;1.13;0.70;;;25.20;47.50;;;;;;5013264;28;20565;-66
2022/07/03 03:01:38;;;;;;;0.85;0.70;;;25.10;47.40;;;;;;5012812;28;20033;-64
2022/07/03 03:04:18;;;;;;;0.80;0.75;;;25.10;47.40;;;;;;5013987;28;20036;-66
2022/07/03 03:06:53;;;;;;;0.80;0.75;;;25.10;47.40;;;;;;5010677;28;20123;-64
2022/07/03 03:09:26;;;;;;;0.75;0.70;;;25.10;47.40;;;;;;5013242;28;20033;-65
2022/07/03 03:11:55;;;;;;;1.08;0.70;;;25.10;47.50;;;;;;5014243;28;20125;-65
2022/07/03 03:14:26;;;;;;;0.88;0.80;;;25.10;47.50;;;;;;5013383;28;20026;-60
2022/07/03 03:16:53;;;;;;;1.00;0.80;;;25.10;47.50;;;;;;5011975;28;20498;-65
2022/07/03 03:19:23;;;;;;;0.80;0.70;;;25.10;47.50;;;;;;5012515;28;20114;-65
2022/07/03 03:22:06;;;;;;;0.80;0.70;;;25.10;47.50;;;;;;5011148;28;20458;-61
2022/07/03 03:24:33;;;;;;;0.70;0.70;;;25.10;47.50;;;;;;5010807;28;20021;-65
2022/07/03 03:27:00;;;;;;;1.00;0.80;;;25.10;47.50;;;;;;5011947;28;20038;-64
2022/07/03 03:29:27;;;;;;;0.70;0.70;;;25.10;47.50;;;;;;5013132;28;20675;-66
2022/07/03 03:31:52;;;;;;;0.70;0.70;;;25.10;47.50;;;;;;5012941;28;20230;-65
2022/07/03 03:34:20;;;;;;;0.73;0.73;;;25.10;47.50;;;;;;5012843;28;20704;-65
2022/07/03 03:36:45;;;;;;;0.80;0.70;;;25.10;47.50;;;;;;5010599;28;20382;-65
2022/07/03 03:39:12;;;;;;;0.88;0.70;;;25.10;47.50;;;;;;5014149;28;20034;-65
2022/07/03 03:41:38;;;;;;;0.60;0.60;;;25.10;47.60;;;;;;5011182;28;20167;-66
2022/07/03 03:44:04;;;;;;;0.77;0.70;;;25.10;47.60;;;;;;5012067;28;20060;-66
2022/07/03 03:46:29;;;;;;;0.80;0.70;;;25.10;47.50;;;;;;5012812;28;20053;-65
2022/07/03 03:48:56;;;;;;;1.27;0.70;;;25.10;47.90;;;;;;5011070;28;20174;-65
2022/07/03 03:51:22;;;;;;;0.95;0.70;;;25.10;47.50;;;;;;5010876;28;20033;-65
2022/07/03 03:53:47;;;;;;;0.70;0.70;;;25.00;47.50;;;;;;5012252;28;20052;-66
2022/07/03 03:56:14;;;;;;;1.08;0.80;;;25.10;47.60;;;;;;5010519;28;20108;-63
2022/07/03 03:58:41;;;;;;;0.90;0.68;;;25.00;47.50;;;;;;5012144;28;20028;-66
2022/07/03 04:01:08;;;;;;;0.70;0.70;;;25.10;47.60;;;;;;5012187;28;20461;-61
2022/07/03 04:03:34;;;;;;;0.88;0.82;;;25.00;47.50;;;;;;5011820;28;20025;-66
2022/07/03 04:06:01;;;;;;;0.75;0.70;;;25.00;47.50;;;;;;5012373;28;20041;-63
2022/07/03 04:08:28;;;;;;;1.35;0.80;;;25.00;47.60;;;;;;5008161;28;20105;-65
2022/07/03 04:10:54;;;;;;;0.70;0.68;;;25.00;47.60;;;;;;5012497;28;20433;-66
2022/07/03 04:13:20;;;;;;;0.60;0.60;;;25.00;47.60;;;;;;5010685;28;20129;-62
2022/07/03 04:15:47;;;;;;;0.88;0.70;;;25.00;47.60;;;;;;5010361;28;20037;-65
2022/07/03 04:18:13;;;;;;;1.08;0.80;;;25.00;47.60;;;;;;5012207;28;20109;-64
2022/07/03 04:20:38;;;;;;;1.05;0.70;;;25.00;47.60;;;;;;5012276;28;20120;-61
2022/07/03 04:23:04;;;;;;;0.68;0.65;;;25.00;47.60;;;;;;5009041;28;20053;-62
2022/07/03 04:25:30;;;;;;;0.70;0.68;;;25.00;47.60;;;;;;5010342;28;20533;-67
2022/07/03 04:27:56;;;;;;;0.65;0.60;;;25.00;47.70;;;;;;5010313;28;20037;-64
2022/07/03 04:30:21;;;;;;;0.98;0.70;;;25.00;47.70;;;;;;5010731;28;20095;-64
2022/07/03 04:32:48;;;;;;;0.98;0.80;;;25.00;47.70;;;;;;5011360;28;20026;-66
2022/07/03 04:35:14;;;;;;;0.60;0.60;;;25.00;47.60;;;;;;5013281;28;20083;-61
2022/07/03 04:37:40;;;;;;;0.63;0.60;;;25.00;47.70;;;;;;5007724;28;20049;-64
2022/07/03 04:40:07;;;;;;;0.77;0.70;;;24.90;47.70;;;;;;5012425;28;20486;-66
2022/07/03 04:42:32;;;;;;;0.70;0.70;;;24.90;47.70;;;;;;5010199;28;20045;-66
2022/07/03 04:44:58;;;;;;;0.70;0.70;;;24.90;47.70;;;;;;5011661;28;20489;-66
2022/07/03 04:47:24;;;;;;;0.70;0.70;;;24.90;47.70;;;;;;5009674;28;20123;-61
2022/07/03 04:49:49;;;;;;;1.08;0.75;;;24.90;47.70;;;;;;5011601;28;20118;-66
2022/07/03 04:52:15;;;;;;;1.15;0.82;;;24.90;47.70;;;;;;5010973;28;20038;-62
2022/07/03 04:54:41;;;;;;;1.00;0.80;;;24.90;47.70;;;;;;5012266;28;20119;-63
2022/07/03 04:57:06;;;;;;;0.60;0.60;;;24.90;47.70;;;;;;5010437;28;20068;-61
2022/07/03 04:59:32;;;;;;;0.60;0.60;;;24.90;47.70;;;;;;5010541;28;20117;-65
2022/07/03 05:01:57;;;;;;;0.50;0.50;;;24.90;47.70;;;;;;5012202;28;20037;-66
2022/07/03 05:04:23;;;;;;;0.93;0.70;;;24.90;47.80;;;;;;5012070;28;20052;-65
2022/07/03 05:06:49;;;;;;;0.60;0.60;;;24.90;47.80;;;;;;5011224;28;20398;-65
2022/07/03 05:09:15;;;;;;;0.60;0.60;;;24.90;47.80;;;;;;5008746;28;20151;-66
2022/07/03 05:11:41;;;;;;;1.13;0.70;;;24.90;47.80;;;;;;5009904;28;20025;-65
2022/07/03 05:14:07;;;;;;;0.60;0.60;;;24.90;47.80;;;;;;5014687;28;20262;-66
2022/07/03 05:16:32;;;;;;;0.60;0.60;;;24.90;47.80;;;;;;5015043;28;20047;-62
2022/07/03 05:18:58;;;;;;;0.60;0.60;;;24.80;47.80;;;;;;5015495;28;20037;-65
2022/07/03 05:21:24;;;;;;;0.63;0.63;;;24.80;47.80;;;;;;5012864;28;20041;-65
2022/07/03 05:23:49;;;;;;;0.60;0.60;;;24.80;48.00;;;;;;5013993;28;20040;-61
2022/07/03 05:26:15;;;;;;;0.77;0.65;;;24.80;47.80;;;;;;5016873;28;20030;-66
2022/07/03 05:28:41;;;;;;;0.60;0.60;;;24.80;47.80;;;;;;5013550;28;20029;-65
2022/07/03 05:31:06;;;;;;;0.70;0.70;;;24.80;47.80;;;;;;5013058;28;20120;-64
2022/07/03 05:33:32;;;;;;;1.00;0.70;;;24.80;47.80;;;;;;5014794;28;20048;-64
2022/07/03 05:35:58;;;;;;;0.73;0.70;;;24.80;47.80;;;;;;5008069;28;20902;-64
2022/07/03 05:41:09;;;;;;;1.75;1.23;;;24.80;47.80;;;;;;5011793;28;20051;-64
2022/07/03 05:43:34;;;;;;;3.22;1.38;;;24.70;47.80;;;;;;5011409;28;20045;-64
2022/07/03 05:46:00;;;;;;;2.85;1.50;;;24.60;47.80;;;;;;5009018;28;20040;-64
2022/07/03 05:48:25;;;;;;;3.13;1.40;;;24.40;48.10;;;;;;5011224;28;20041;-65
2022/07/03 05:50:51;;;;;;;2.80;1.30;;;24.40;48.40;;;;;;5016028;28;20386;-65
2022/07/03 05:53:17;;;;;;;1.45;1.25;;;24.30;48.50;;;;;;5014085;28;20040;-64
2022/07/03 05:55:43;;;;;;;2.67;1.52;;;24.30;48.60;;;;;;5014170;28;20026;-63
2022/07/03 05:58:09;;;;;;;3.00;1.63;;;24.30;48.80;;;;;;5014142;28;20048;-65
2022/07/03 06:00:34;;;;;;;2.55;1.60;;;24.20;48.90;;;;;;5013739;28;20044;-64
2022/07/03 06:03:01;;;;;;;2.55;1.50;;;24.10;49.20;;;;;;5013783;28;20029;-64
2022/07/03 06:05:27;;;;;;;2.00;1.45;;;24.00;49.50;;;;;;5012783;28;20405;-64
2022/07/03 06:07:53;;;;;;;2.00;1.40;;;24.00;49.50;;;;;;5008023;28;20083;-63
2022/07/03 06:10:19;;;;;;;2.47;1.27;;;24.00;49.60;;;;;;5011385;28;20045;-60
2022/07/03 06:12:44;;;;;;;2.58;1.50;;;24.00;49.90;;;;;;5012420;28;20389;-63
2022/07/03 06:15:11;;;;;;;2.30;1.67;;;24.00;49.90;;;;;;5013723;28;20053;-61
2022/07/03 06:17:36;;;;;;;2.17;1.40;;;24.00;50.10;;;;;;5011224;28;20600;-63
2022/07/03 06:20:03;;;;;;;2.03;1.52;;;24.00;50.20;;;;;;5013364;28;20041;-63
2022/07/03 06:22:29;;;;;;;2.30;1.30;;;24.00;50.10;;;;;;5014074;28;20398;-64
2022/07/03 06:24:55;;;;;;;2.53;1.80;;;24.00;50.10;;;;;;5011810;28;20028;-63
2022/07/03 06:27:21;;;;;;;2.35;1.65;;;24.00;50.60;;;;;;5011448;28;20493;-63
2022/07/03 06:29:49;;;;;;;2.20;1.60;;;23.90;50.60;;;;;;5014137;28;20042;-59
2022/07/03 06:32:15;;;;;;;2.50;1.60;;;23.90;50.70;;;;;;5011195;28;20045;-63
2022/07/03 06:34:42;;;;;;;1.98;1.40;;;23.80;50.90;;;;;;5010948;28;22246;-60
2022/07/03 06:37:08;;;;;;;3.05;1.77;;;23.80;50.70;;;;;;5007470;28;20021;-63
2022/07/03 06:39:34;;;;;;;3.08;2.17;;;23.80;50.90;;;;;;5012851;28;20037;-64
2022/07/03 06:41:59;;;;;;;3.17;1.90;;;23.80;50.90;;;;;;5011005;28;20052;-64
2022/07/03 06:44:25;;;;;;;2.78;1.90;;;23.70;51.30;;;;;;5011210;28;20889;-60
2022/07/03 06:46:50;;;;;;;2.63;1.90;;;23.60;52.00;;;;;;5007541;28;20037;-59
2022/07/03 06:49:16;;;;;;;4.10;1.60;;;23.50;52.00;;;;;;5011745;28;20041;-64
2022/07/03 06:51:42;;;;;;;2.53;1.52;;;23.50;52.40;;;;;;5010663;28;20026;-59
2022/07/03 06:54:07;;;;;;;2.63;1.60;;;23.50;52.50;;;;;;5010566;28;20539;-63
2022/07/03 06:56:33;;;;;;;2.13;1.30;;;23.50;52.40;;;;;;5011444;28;20136;-63
2022/07/03 06:58:58;;;;;;;2.03;1.30;;;23.60;52.10;;;;;;5011323;28;20040;-64
2022/07/03 07:01:24;;;;;;;2.65;1.20;;;23.60;51.90;;;;;;5009455;28;21472;-64
2022/07/03 07:03:49;;;;;;;1.75;1.08;;;23.70;51.70;;;;;;5012051;28;20069;-63
2022/07/03 07:06:15;;;;;;;1.88;0.90;;;23.60;51.40;;;;;;5012638;28;20552;-62
2022/07/03 07:08:41;;;;;;;1.38;0.90;;;23.70;51.30;;;;;;5011782;28;20040;-63
2022/07/03 07:11:06;;;;;;;1.92;1.10;;;23.70;51.10;;;;;;5012145;28;20033;-64
2022/07/03 07:13:32;;;;;;;1.13;0.95;;;23.70;50.90;;;;;;5015083;28;20043;-65
2022/07/03 07:15:58;;;;;;;3.28;1.10;;;23.80;50.90;;;;;;5008161;28;20481;-64
2022/07/03 07:18:23;;;;;;;2.42;1.00;;;23.80;50.70;;;;;;5009797;28;20029;-65
2022/07/03 07:20:49;;;;;;;1.38;1.10;;;23.80;50.70;;;;;;5012597;28;20681;-65
2022/07/03 07:23:14;;;;;;;1.38;0.93;;;23.80;50.50;;;;;;5013343;28;20028;-62
2022/07/03 07:25:40;;;;;;;1.48;1.00;;;23.80;50.50;;;;;;5009820;28;20033;-65
2022/07/03 07:28:06;;;;;;;1.52;1.00;;;23.80;51.00;;;;;;5012272;28;20048;-64
2022/07/03 07:30:31;;;;;;;2.42;1.10;;;23.80;50.40;;;;;;5013278;28;20052;-65
2022/07/03 07:32:57;;;;;;;1.40;0.85;;;23.80;50.30;;;;;;5012104;28;20048;-65
2022/07/03 07:35:22;;;;;;;2.22;1.13;;;23.90;50.30;;;;;;5012203;28;20030;-63
2022/07/03 07:37:48;;;;;;;1.23;1.00;;;23.90;50.30;;;;;;5010974;28;20171;-65
2022/07/03 07:40:13;;;;;;;2.17;1.00;;;23.80;50.20;;;;;;5012254;28;20038;-64
2022/07/03 07:42:39;;;;;;;1.90;1.10;;;23.90;50.20;;;;;;5014450;28;20029;-65
2022/07/03 07:45:05;;;;;;;1.20;0.90;;;23.90;50.20;;;;;;5013468;28;20108;-65
2022/07/03 07:47:31;;;;;;;1.17;0.90;;;23.90;50.10;;;;;;5011571;28;20025;-65
2022/07/03 07:49:57;;;;;;;1.30;0.90;;;23.90;50.10;;;;;;5014685;28;20037;-64
2022/07/03 07:52:24;;;;;;;0.75;0.75;;;23.90;50.10;;;;;;5011803;28;20588;-65
2022/07/03 07:54:50;;;;;;;0.80;0.80;;;23.90;50.00;;;;;;5005564;28;20025;-65
2022/07/03 07:57:15;;;;;;;1.30;0.90;;;23.90;50.00;;;;;;5010893;28;20036;-64
2022/07/03 07:59:41;;;;;;;0.80;0.80;;;23.90;50.00;;;;;;5013021;28;20098;-62
2022/07/03 08:07:35;;;;;;;1.65;0.90;;;23.90;50.00;;;;;;5009231;28;20124;-65
2022/07/03 08:10:00;;;;;;;1.73;0.90;;;23.90;50.00;;;;;;5002283;28;20116;-65
2022/07/03 08:12:26;;;;;;;1.42;1.00;;;24.00;50.10;;;;;;5006294;28;20534;-64
2022/07/03 08:14:51;;;;;;;1.00;0.90;;;24.00;50.20;;;;;;5014202;28;20108;-63
2022/07/03 08:17:17;;;;;;;1.48;0.90;;;24.00;50.10;;;;;;5012104;28;20034;-64
2022/07/03 08:19:43;;;;;;;2.53;1.00;;;24.00;50.20;;;;;;5011496;28;20029;-64
2022/07/03 08:22:08;;;;;;;1.50;0.90;;;24.00;50.20;;;;;;5010830;28;20033;-64
2022/07/03 08:24:34;;;;;;;1.45;0.90;;;24.00;50.20;;;;;;5008218;28;20033;-64
2022/07/03 08:26:59;;;;;;;1.77;1.15;;;24.00;50.20;;;;;;5006650;28;20037;-64
2022/07/03 08:29:25;;;;;;;1.20;0.90;;;24.00;50.10;;;;;;5012095;28;20088;-65
2022/07/03 08:31:51;;;;;;;1.02;0.88;;;24.00;50.20;;;;;;5009691;28;20509;-64
2022/07/03 08:34:16;;;;;;;1.23;0.90;;;24.00;50.10;;;;;;5012774;28;20111;-64
2022/07/03 08:36:42;;;;;;;1.90;1.00;;;24.00;50.10;;;;;;5009730;28;20171;-64
2022/07/03 08:39:09;;;;;;;0.90;0.80;;;24.00;50.00;;;;;;5009843;28;20022;-64
2022/07/03 08:41:38;;;;;;;0.95;0.80;;;24.00;50.00;;;;;;5006339;28;20025;-64
2022/07/03 08:44:05;;;;;;;1.60;0.90;;;24.00;50.00;;;;;;5012024;28;20025;-64
2022/07/03 08:46:32;;;;;;;1.08;0.80;;;24.10;50.10;;;;;;5013831;28;20029;-64
2022/07/03 08:49:02;;;;;;;1.02;0.90;;;24.10;50.10;;;;;;5013634;28;20026;-65
2022/07/03 08:51:28;;;;;;;1.65;0.90;;;24.10;50.10;;;;;;5011748;28;20592;-64
2022/07/03 08:53:54;;;;;;;1.00;0.80;;;24.00;50.10;;;;;;5014295;28;20105;-64
2022/07/03 08:56:22;;;;;;;1.55;1.00;;;24.10;50.10;;;;;;5014582;28;20032;-64
2022/07/03 08:58:47;;;;;;;1.08;0.90;;;24.10;50.10;;;;;;5013531;28;20033;-64
2022/07/03 09:01:16;;;;;;;1.23;0.80;;;24.00;50.20;;;;;;5009750;28;20391;-64
2022/07/03 09:03:42;;;;;;;1.17;0.93;;;24.10;50.20;;;;;;5010853;28;20762;-64
2022/07/03 09:06:08;;;;;;;1.02;0.90;;;24.10;50.30;;;;;;5005403;28;20549;-64
2022/07/03 09:08:36;;;;;;;1.50;0.90;;;24.10;50.30;;;;;;5007786;28;20037;-64
2022/07/03 09:11:02;;;;;;;1.70;0.90;;;24.10;50.30;;;;;;5011478;28;20079;-62
2022/07/03 09:13:28;;;;;;;1.55;0.90;;;24.10;50.30;;;;;;5010018;28;20058;-64
2022/07/03 09:15:53;;;;;;;0.98;0.88;;;24.10;50.30;;;;;;5015694;28;20509;-63
2022/07/03 09:18:41;;;;;;;0.70;0.70;;;24.10;50.30;;;;;;5014033;28;20151;-62
2022/07/03 09:21:08;;;;;;;1.20;0.90;;;24.10;50.40;;;;;;5012996;28;20513;-65
2022/07/03 09:23:39;;;;;;;1.27;0.90;;;24.10;50.40;;;;;;5014934;28;20490;-65
2022/07/03 09:26:06;;;;;;;1.10;0.80;;;24.10;50.60;;;;;;5013910;28;20033;-64
2022/07/03 09:28:50;;;;;;;1.08;0.80;;;24.10;50.60;;;;;;5010291;28;20473;-63
2022/07/03 09:31:18;;;;;;;1.27;0.98;;;24.10;50.70;;;;;;5011471;28;20589;-64
2022/07/03 09:33:51;;;;;;;2.15;1.10;;;24.10;50.70;;;;;;5014859;28;20037;-65
2022/07/03 09:36:17;;;;;;;2.45;1.10;;;24.10;50.90;;;;;;5012129;28;20041;-63
2022/07/03 09:38:45;;;;;;;1.98;1.10;;;24.10;50.70;;;;;;5010061;28;20026;-64
2022/07/03 09:41:11;;;;;;;3.42;1.30;;;24.10;50.70;;;;;;5012469;28;20052;-64
2022/07/03 09:43:42;;;;;;;4.40;1.60;;;24.10;50.80;;;;;;5013249;28;20037;-64
2022/07/03 09:46:08;;;;;;;3.22;1.30;;;24.20;50.80;;;;;;5014840;28;20033;-64
2022/07/03 09:48:36;;;;;;;3.60;1.40;;;24.10;50.90;;;;;;5012136;28;20457;-65
2022/07/03 09:51:11;;;;;;;3.58;1.60;;;24.10;50.80;;;;;;5014293;28;20120;-64
2022/07/03 09:53:53;;;;;;;3.92;1.67;;;24.10;50.90;;;;;;5011644;28;20087;-65
2022/07/03 09:56:19;;;;;;;4.03;1.70;;;24.20;51.30;;;;;;5011859;28;20535;-64
2022/07/03 09:59:09;;;;;;;4.65;1.70;;;24.10;51.30;;;;;;5002813;28;20083;-65
2022/07/03 10:01:36;;;;;;;3.50;1.45;;;24.10;51.40;;;;;;5011270;28;20196;-64
2022/07/03 10:04:21;;;;;;;4.35;1.75;;;24.20;51.30;;;;;;5013686;28;20029;-64
2022/07/03 10:06:52;;;;;;;4.50;1.70;;;24.20;51.60;;;;;;5009510;28;20045;-63
2022/07/03 10:09:23;;;;;;;4.22;1.60;;;24.20;51.60;;;;;;5008888;28;20079;-65
2022/07/03 10:11:49;;;;;;;3.67;1.50;;;24.20;51.60;;;;;;5012464;28;20057;-64
2022/07/03 10:14:18;;;;;;;4.10;1.75;;;24.20;51.70;;;;;;5013158;28;20638;-64
2022/07/03 10:16:44;;;;;;;4.22;1.35;;;24.20;51.50;;;;;;5011149;28;20476;-65
2022/07/03 10:19:21;;;;;;;4.03;1.50;;;24.20;51.60;;;;;;5011840;28;20397;-62
2022/07/03 10:21:52;;;;;;;2.72;1.50;;;24.20;51.60;;;;;;5009477;28;20121;-64
2022/07/03 10:24:18;;;;;;;3.22;1.40;;;24.20;51.40;;;;;;5013061;28;20022;-64
2022/07/03 10:26:45;;;;;;;4.40;1.45;;;24.20;51.40;;;;;;5007299;28;20056;-65
2022/07/03 10:29:10;;;;;;;3.28;1.65;;;24.20;51.40;;;;;;5011489;28;20117;-62
2022/07/03 10:31:40;;;;;;;3.70;1.50;;;24.20;51.40;;;;;;5008292;28;20045;-64
2022/07/03 10:34:06;;;;;;;3.10;1.48;;;24.20;51.50;;;;;;5015057;28;20033;-61
2022/07/03 10:36:36;;;;;;;2.88;1.30;;;24.20;51.50;;;;;;5008884;28;20649;-64
2022/07/03 10:39:05;;;;;;;3.13;1.40;;;24.20;51.40;;;;;;5012317;28;20370;-64
2022/07/03 10:47:05;;;;;;;2.45;1.27;;;24.20;51.30;;;;;;5008071;28;20091;-64
2022/07/03 10:49:30;;;;;;;2.80;1.33;;;24.30;51.40;;;;;;5011964;28;20029;-63
2022/07/03 10:51:57;;;;;;;2.50;1.20;;;24.30;51.40;;;;;;5009510;28;20647;-64
2022/07/03 10:54:33;;;;;;;2.38;1.20;;;24.30;51.40;;;;;;5007281;28;20056;-62
2022/07/03 10:57:02;;;;;;;2.00;1.20;;;24.20;51.30;;;;;;5008852;28;20036;-63
2022/07/03 10:59:45;;;;;;;2.97;1.30;;;24.30;51.30;;;;;;5008193;28;20501;-62
2022/07/03 11:02:34;;;;;;;2.60;1.20;;;24.30;51.30;;;;;;5008263;28;20114;-64
2022/07/03 11:05:00;;;;;;;2.80;1.48;;;24.30;51.40;;;;;;5005505;28;20034;-65
2022/07/03 11:07:55;;;;;;;2.88;1.20;;;24.30;51.30;;;;;;5003688;28;21670;-64
2022/07/03 11:10:24;;;;;;;2.70;1.30;;;24.30;51.30;;;;;;5008674;28;20594;-64
2022/07/03 11:13:10;;;;;;;2.78;1.25;;;24.30;51.20;;;;;;5010919;28;20480;-63
2022/07/03 11:15:51;;;;;;;3.70;1.40;;;24.30;51.20;;;;;;5011618;28;20036;-65
2022/07/03 11:18:32;;;;;;;2.85;1.05;;;24.30;51.20;;;;;;5003549;28;20095;-64
2022/07/03 11:21:21;;;;;;;2.58;1.10;;;24.30;51.20;;;;;;5010723;28;20477;-64
2022/07/03 11:24:19;;;;;;;2.70;1.20;;;24.30;51.20;;;;;;5006711;28;20513;-64
2022/07/03 11:26:44;;;;;;;2.65;1.30;;;24.30;51.20;;;;;;5006993;28;20480;-63
2022/07/03 11:29:28;;;;;;;2.42;1.20;;;24.30;51.10;;;;;;5005823;28;20033;-62
2022/07/03 11:31:53;;;;;;;2.75;1.20;;;24.30;51.10;;;;;;5006570;28;20037;-62
2022/07/03 11:34:19;;;;;;;2.05;1.10;;;24.30;51.00;;;;;;5009407;28;20484;-64
2022/07/03 11:36:45;;;;;;;2.53;1.20;;;24.30;51.00;;;;;;5006421;28;20140;-65
2022/07/03 11:39:13;;;;;;;2.88;1.20;;;24.30;51.00;;;;;;5009361;28;20025;-65
2022/07/03 11:41:38;;;;;;;2.28;1.10;;;24.30;51.00;;;;;;5005030;28;20036;-63
2022/07/03 11:44:08;;;;;;;2.38;1.35;;;24.30;51.00;;;;;;5002416;28;20454;-62
2022/07/03 11:46:36;;;;;;;2.15;1.17;;;24.40;51.00;;;;;;5010192;28;20044;-64
2022/07/03 11:49:11;;;;;;;2.03;1.10;;;24.40;51.00;;;;;;5008235;28;20137;-63
2022/07/03 11:51:40;;;;;;;2.38;1.20;;;24.40;51.00;;;;;;5010003;28;20025;-63
2022/07/03 11:54:09;;;;;;;4.60;1.40;;;24.40;51.00;;;;;;5013208;28;20029;-64
2022/07/03 11:56:36;;;;;;;3.08;1.35;;;24.40;51.00;;;;;;5011139;28;20499;-65
2022/07/03 11:59:05;;;;;;;2.45;1.27;;;24.40;50.90;;;;;;5013214;28;20042;-62
2022/07/03 12:01:33;;;;;;;;;;;24.40;50.90;;;;;;5010712;28;20044;-65
2022/07/03 12:04:31;;;;;;;2.22;1.00;;;24.40;50.90;;;;;;5011458;28;20408;-62
2022/07/03 12:06:58;;;;;;;1.45;0.93;;;24.40;50.90;;;;;;4974205;28;20072;-63
2022/07/03 12:09:42;;;;;;;2.00;1.00;;;24.40;50.80;;;;;;5010216;28;20017;-64
2022/07/03 12:12:11;;;;;;;2.03;1.10;;;24.40;50.90;;;;;;5008002;28;20052;-63
2022/07/03 12:14:39;;;;;;;3.40;1.20;;;24.40;50.80;;;;;;5010473;28;20025;-66
2022/07/03 12:17:07;;;;;;;1.35;0.95;;;24.40;50.80;;;;;;5011989;28;20025;-64
2022/07/03 12:19:33;;;;;;;1.65;0.90;;;24.40;50.80;;;;;;5009483;28;20359;-65
2022/07/03 12:22:00;;;;;;;1.80;1.00;;;24.50;50.80;;;;;;5008443;28;20030;-63
2022/07/03 12:24:26;;;;;;;2.22;1.00;;;24.50;50.80;;;;;;5007815;28;20892;-63
2022/07/03 12:26:52;;;;;;;1.83;0.98;;;24.50;50.80;;;;;;5011877;28;20095;-63
2022/07/03 12:29:18;;;;;;;2.17;1.00;;;24.50;50.80;;;;;;5010546;28;20041;-65
2022/07/03 12:31:46;;;;;;;2.33;1.23;;;24.50;50.80;;;;;;5012979;28;20088;-64
2022/07/03 12:34:13;;;;;;;2.78;1.13;;;24.50;50.80;;;;;;5008083;28;20054;-64
2022/07/03 12:36:40;;;;;;;1.38;1.00;;;24.50;50.70;;;;;;5007329;28;20048;-65
2022/07/03 12:39:05;;;;;;;1.30;0.90;;;24.50;50.70;;;;;;5009325;28;20033;-65
2022/07/03 12:41:32;;;;;;;2.00;1.00;;;24.50;50.70;;;;;;5009558;28;20033;-64
2022/07/03 12:43:59;;;;;;;2.17;1.15;;;24.50;50.80;;;;;;5012464;28;20033;-65
2022/07/03 12:46:26;;;;;;;1.52;1.00;;;24.50;50.70;;;;;;5025113;28;20057;-65
2022/07/03 12:48:56;;;;;;;2.17;1.20;;;24.50;50.70;;;;;;5010755;28;20137;-64
2022/07/03 12:51:41;;;;;;;1.65;0.98;;;24.50;50.70;;;;;;5009508;28;20120;-63
2022/07/03 12:54:08;;;;;;;1.92;1.05;;;24.50;50.70;;;;;;5012144;28;20205;-64
2022/07/03 12:56:34;;;;;;;2.05;1.02;;;24.50;50.70;;;;;;5005972;28;20140;-64
2022/07/03 12:59:18;;;;;;;1.70;1.10;;;24.50;50.60;;;;;;5009821;28;20018;-64
2022/07/03 13:02:04;;;;;;;1.75;1.00;;;24.50;50.70;;;;;;5008836;28;20812;-63
2022/07/03 13:04:35;;;;;;;3.10;0.93;;;24.60;50.80;;;;;;5009552;28;20057;-64
2022/07/03 13:07:07;;;;;;;3.50;1.20;;;24.60;50.70;;;;;;5004917;28;20036;-65
2022/07/03 13:09:36;;;;;;;2.92;1.15;;;24.60;50.70;;;;;;5024475;28;20033;-62
2022/07/03 13:12:03;;;;;;;1.30;0.90;;;24.60;50.70;;;;;;5010622;28;20052;-65